createdAt,value
2019-06-10T00:01:00.002Z,0.00
2019-06-10T00:01:59.520Z,0.00
2019-06-10T00:03:00.323Z,0.00
2019-06-10T00:04:00.506Z,0.00
2019-06-10T00:05:00.291Z,0.00
2019-06-10T00:06:01.885Z,0.00
2019-06-10T00:07:02.021Z,0.00
2019-06-10T00:08:02.105Z,0.00
2019-06-10T00:09:03.078Z,0.00
2019-06-10T00:10:02.165Z,0.00
2019-06-10T00:11:01.759Z,0.00
2019-06-10T00:12:01.530Z,0.00
2019-06-10T00:13:02.240Z,0.00
2019-06-10T00:14:01.167Z,0.00
2019-06-10T00:15:01.311Z,0.00
2019-06-10T00:16:01.280Z,0.00
2019-06-10T00:17:01.527Z,0.00
2019-06-10T00:18:18.716Z,0.00
2019-06-10T00:19:02.821Z,0.00
2019-06-10T00:20:01.927Z,0.00
2019-06-10T00:21:01.926Z,0.00
2019-06-10T00:22:01.699Z,0.00
2019-06-10T00:23:01.689Z,0.00
2019-06-10T00:24:01.694Z,0.00
2019-06-10T00:25:01.796Z,0.00
2019-06-10T00:26:03.756Z,0.00
2019-06-10T00:27:00.295Z,0.00
2019-06-10T00:28:00.537Z,0.00
2019-06-10T00:29:00.679Z,0.00
2019-06-10T00:30:02.846Z,0.00
2019-06-10T00:31:01.204Z,0.00
2019-06-10T00:32:03.181Z,0.00
2019-06-10T00:33:01.194Z,0.00
2019-06-10T00:34:02.927Z,0.00
2019-06-10T00:35:01.947Z,0.00
2019-06-10T00:36:03.717Z,0.00
2019-06-10T00:37:01.989Z,0.00
2019-06-10T00:38:02.056Z,0.00
2019-06-10T00:39:02.433Z,0.00
2019-06-10T00:40:02.165Z,0.00
2019-06-10T00:41:02.306Z,0.00
2019-06-10T00:42:02.499Z,0.00
2019-06-10T00:43:02.164Z,0.00
2019-06-10T00:44:02.162Z,0.00
2019-06-10T00:45:02.680Z,0.00
2019-06-10T00:46:00.689Z,0.00
2019-06-10T00:47:00.694Z,0.00
2019-06-10T00:48:13.546Z,0.00
2019-06-10T00:49:03.942Z,0.00
2019-06-10T00:50:03.286Z,0.00
2019-06-10T00:51:01.330Z,0.00
2019-06-10T00:52:02.462Z,0.00
2019-06-10T00:53:01.339Z,0.00
2019-06-10T00:54:03.334Z,0.00
2019-06-10T00:55:01.693Z,0.00
2019-06-10T00:56:02.333Z,0.00
2019-06-10T00:57:01.223Z,0.00
2019-06-10T00:58:01.437Z,0.00
2019-06-10T00:59:01.062Z,0.00
2019-06-10T01:00:01.690Z,0.00
2019-06-10T01:01:01.182Z,0.00
2019-06-10T01:02:01.718Z,0.00
2019-06-10T01:03:01.109Z,0.00
2019-06-10T01:04:02.936Z,0.00
2019-06-10T01:05:00.876Z,0.00
2019-06-10T01:06:02.597Z,0.00
2019-06-10T01:07:00.771Z,0.00
2019-06-10T01:08:01.349Z,0.00
2019-06-10T01:09:00.686Z,0.00
2019-06-10T01:10:01.084Z,0.00
2019-06-10T01:11:05.660Z,0.00
2019-06-10T01:12:01.189Z,0.00
2019-06-10T01:13:00.843Z,0.00
2019-06-10T01:14:01.460Z,0.00
2019-06-10T01:15:00.892Z,0.00
2019-06-10T01:16:01.626Z,0.00
2019-06-10T01:17:01.256Z,0.00
2019-06-10T01:18:01.353Z,0.00
2019-06-10T01:19:01.468Z,0.00
2019-06-10T01:20:01.551Z,0.00
2019-06-10T01:21:02.005Z,0.00
2019-06-10T01:22:01.522Z,0.00
2019-06-10T01:23:01.559Z,0.00
2019-06-10T01:24:01.172Z,0.00
2019-06-10T01:25:01.634Z,0.00
2019-06-10T01:26:01.620Z,0.00
2019-06-10T01:27:01.272Z,0.00
2019-06-10T01:28:00.649Z,0.00
2019-06-10T01:29:01.072Z,0.00
2019-06-10T01:30:02.979Z,0.00
2019-06-10T01:31:01.143Z,0.00
2019-06-10T01:32:01.703Z,0.00
2019-06-10T01:33:01.147Z,0.00
2019-06-10T01:34:00.848Z,0.00
2019-06-10T01:35:01.263Z,0.00
2019-06-10T01:36:00.877Z,0.00
2019-06-10T01:37:01.464Z,0.00
2019-06-10T01:38:01.087Z,0.00
2019-06-10T01:39:01.574Z,0.00
2019-06-10T01:40:00.917Z,0.00
2019-06-10T01:41:01.485Z,0.00
2019-06-10T01:42:00.877Z,0.00
2019-06-10T01:43:01.139Z,0.00
2019-06-10T01:44:01.767Z,0.00
2019-06-10T01:45:01.264Z,0.00
2019-06-10T01:46:01.594Z,0.00
2019-06-10T01:47:01.108Z,0.00
2019-06-10T01:48:01.430Z,0.00
2019-06-10T01:49:01.021Z,0.00
2019-06-10T01:50:01.022Z,0.00
2019-06-10T01:51:01.762Z,0.00
2019-06-10T01:52:01.638Z,0.00
2019-06-10T01:53:01.096Z,0.00
2019-06-10T01:54:01.405Z,0.00
2019-06-10T01:55:01.630Z,0.00
2019-06-10T01:56:01.185Z,0.00
2019-06-10T01:57:01.595Z,0.00
2019-06-10T01:58:01.182Z,0.00
2019-06-10T01:59:01.553Z,0.00
2019-06-10T02:00:08.998Z,0.00
2019-06-10T02:01:01.528Z,0.00
2019-06-10T02:02:01.257Z,0.00
2019-06-10T02:03:03.543Z,0.00
2019-06-10T02:04:01.296Z,0.00
2019-06-10T02:05:01.882Z,0.00
2019-06-10T02:06:01.611Z,0.00
2019-06-10T02:07:01.471Z,0.00
2019-06-10T02:08:01.373Z,0.00
2019-06-10T02:09:01.516Z,0.00
2019-06-10T02:10:01.450Z,0.00
2019-06-10T02:11:01.436Z,0.00
2019-06-10T02:12:02.208Z,0.00
2019-06-10T02:13:01.472Z,4.00
2019-06-10T02:14:01.489Z,4.00
2019-06-10T02:15:01.508Z,4.00
2019-06-10T02:16:01.544Z,4.00
2019-06-10T02:17:01.564Z,4.00
2019-06-10T02:18:01.577Z,4.00
2019-06-10T02:19:04.230Z,4.00
2019-06-10T02:20:01.606Z,0.00
2019-06-10T02:21:01.706Z,0.00
2019-06-10T02:22:01.774Z,4.00
2019-06-10T02:23:02.029Z,4.00
2019-06-10T02:24:01.684Z,4.00
2019-06-10T02:25:01.707Z,4.00
2019-06-10T02:26:02.076Z,8.00
2019-06-10T02:27:01.745Z,4.00
2019-06-10T02:28:01.759Z,4.00
2019-06-10T02:29:01.782Z,8.00
2019-06-10T02:30:13.211Z,8.00
2019-06-10T02:31:03.822Z,8.00
2019-06-10T02:32:04.752Z,8.00
2019-06-10T02:33:02.509Z,8.00
2019-06-10T02:34:02.639Z,4.00
2019-06-10T02:35:13.197Z,8.00
2019-06-10T02:36:04.003Z,8.00
2019-06-10T02:37:04.630Z,12.00
2019-06-10T02:38:03.525Z,12.00
2019-06-10T02:39:04.651Z,12.00
2019-06-10T02:40:04.458Z,16.00
2019-06-10T02:41:04.424Z,12.00
2019-06-10T02:42:04.545Z,16.00
2019-06-10T02:43:03.499Z,16.00
2019-06-10T02:44:04.343Z,16.00
2019-06-10T02:45:03.810Z,20.00
2019-06-10T02:46:04.284Z,20.00
2019-06-10T02:47:03.431Z,20.00
2019-06-10T02:48:04.141Z,20.00
2019-06-10T02:49:20.903Z,20.00
2019-06-10T02:50:07.336Z,28.00
2019-06-10T02:51:03.901Z,28.00
2019-06-10T02:52:03.359Z,28.00
2019-06-10T02:53:04.025Z,32.00
2019-06-10T02:54:04.734Z,36.00
2019-06-10T02:55:04.155Z,36.00
2019-06-10T02:56:04.151Z,40.00
2019-06-10T02:57:04.351Z,44.00
2019-06-10T02:58:03.932Z,44.00
2019-06-10T02:59:03.384Z,48.00
2019-06-10T03:00:06.405Z,48.00
2019-06-10T03:01:04.165Z,52.00
2019-06-10T03:02:03.029Z,52.00
2019-06-10T03:03:03.922Z,56.00
2019-06-10T03:04:04.564Z,64.00
2019-06-10T03:05:04.624Z,72.00
2019-06-10T03:06:06.547Z,84.00
2019-06-10T03:07:03.430Z,96.00
2019-06-10T03:08:03.890Z,104.00
2019-06-10T03:09:03.748Z,116.00
2019-06-10T03:10:04.651Z,124.00
2019-06-10T03:11:03.720Z,132.00
2019-06-10T03:12:04.739Z,140.00
2019-06-10T03:13:02.668Z,148.00
2019-06-10T03:14:02.757Z,160.00
2019-06-10T03:15:02.661Z,176.00
2019-06-10T03:16:02.855Z,188.00
2019-06-10T03:17:03.159Z,208.00
2019-06-10T03:18:02.755Z,224.00
2019-06-10T03:19:03.082Z,228.00
2019-06-10T03:20:02.885Z,236.00
2019-06-10T03:21:02.846Z,240.00
2019-06-10T03:22:02.873Z,252.00
2019-06-10T03:23:03.049Z,260.00
2019-06-10T03:24:02.860Z,264.00
2019-06-10T03:25:03.050Z,268.00
2019-06-10T03:26:04.236Z,284.00
2019-06-10T03:27:02.891Z,292.00
2019-06-10T03:28:03.108Z,304.00
2019-06-10T03:29:02.956Z,308.00
2019-06-10T03:30:14.159Z,308.00
2019-06-10T03:31:05.915Z,308.00
2019-06-10T03:32:05.174Z,312.00
2019-06-10T03:33:04.928Z,328.00
2019-06-10T03:34:04.927Z,356.00
2019-06-10T03:35:05.493Z,404.00
2019-06-10T03:36:03.504Z,468.00
2019-06-10T03:37:03.081Z,544.00
2019-06-10T03:38:03.145Z,640.00
2019-06-10T03:39:03.118Z,764.00
2019-06-10T03:40:03.136Z,872.00
2019-06-10T03:41:03.456Z,900.00
2019-06-10T03:42:03.173Z,868.00
2019-06-10T03:43:03.199Z,864.00
2019-06-10T03:44:03.212Z,896.00
2019-06-10T03:45:03.465Z,944.00
2019-06-10T03:46:03.470Z,1000.00
2019-06-10T03:47:03.272Z,1048.00
2019-06-10T03:48:03.788Z,1068.00
2019-06-10T03:49:03.334Z,1040.00
2019-06-10T03:50:03.457Z,1000.00
2019-06-10T03:51:03.627Z,964.00
2019-06-10T03:52:03.373Z,964.00
2019-06-10T03:53:04.412Z,972.00
2019-06-10T03:54:03.400Z,952.00
2019-06-10T03:55:03.421Z,904.00
2019-06-10T03:56:03.444Z,848.00
2019-06-10T03:57:03.459Z,800.00
2019-06-10T03:58:03.536Z,772.00
2019-06-10T03:59:03.501Z,780.00
2019-06-10T04:00:10.406Z,800.00
2019-06-10T04:01:03.542Z,820.00
2019-06-10T04:02:03.555Z,824.00
2019-06-10T04:03:03.577Z,812.00
2019-06-10T04:04:03.595Z,804.00
2019-06-10T04:05:03.612Z,804.00
2019-06-10T04:06:03.648Z,816.00
2019-06-10T04:07:04.034Z,844.00
2019-06-10T04:08:03.671Z,864.00
2019-06-10T04:09:03.694Z,884.00
2019-06-10T04:10:03.713Z,900.00
2019-06-10T04:11:03.726Z,916.00
2019-06-10T04:12:03.796Z,928.00
2019-06-10T04:13:03.768Z,940.00
2019-06-10T04:14:03.785Z,952.00
2019-06-10T04:15:03.805Z,976.00
2019-06-10T04:16:03.827Z,1012.00
2019-06-10T04:17:03.848Z,1060.00
2019-06-10T04:18:04.110Z,1124.00
2019-06-10T04:19:03.879Z,1188.00
2019-06-10T04:20:11.666Z,1248.00
2019-06-10T04:21:03.922Z,1320.00
2019-06-10T04:22:03.942Z,1400.00
2019-06-10T04:23:03.961Z,1492.00
2019-06-10T04:24:03.982Z,1612.00
2019-06-10T04:25:04.006Z,1744.00
2019-06-10T04:26:04.221Z,1892.00
2019-06-10T04:27:04.050Z,2076.00
2019-06-10T04:28:04.052Z,2308.00
2019-06-10T04:29:04.080Z,2592.00
2019-06-10T04:30:04.097Z,2876.00
2019-06-10T04:31:04.117Z,3128.00
2019-06-10T04:32:04.136Z,3368.00
2019-06-10T04:33:04.146Z,3584.00
2019-06-10T04:34:04.184Z,3708.00
2019-06-10T04:35:04.189Z,3792.00
2019-06-10T04:36:04.207Z,3648.00
2019-06-10T04:37:04.228Z,3596.00
2019-06-10T04:38:04.248Z,3560.00
2019-06-10T04:39:04.267Z,3588.00
2019-06-10T04:40:04.324Z,3712.00
2019-06-10T04:41:04.328Z,3832.00
2019-06-10T04:42:04.326Z,3764.00
2019-06-10T04:43:04.343Z,3828.00
2019-06-10T04:44:04.360Z,3908.00
2019-06-10T04:45:04.380Z,4048.00
2019-06-10T04:46:04.401Z,4244.00
2019-06-10T04:47:04.419Z,4308.00
2019-06-10T04:48:04.441Z,4244.00
2019-06-10T04:49:04.511Z,4152.00
2019-06-10T04:50:04.491Z,4128.00
2019-06-10T04:51:04.502Z,4164.00
2019-06-10T04:52:04.518Z,4180.00
2019-06-10T04:53:04.542Z,4144.00
2019-06-10T04:54:04.554Z,4068.00
2019-06-10T04:55:04.580Z,4216.00
2019-06-10T04:56:04.594Z,4420.00
2019-06-10T04:57:04.632Z,3972.00
2019-06-10T04:58:04.644Z,3840.00
2019-06-10T04:59:04.663Z,3900.00
2019-06-10T05:00:11.299Z,4016.00
2019-06-10T05:01:04.693Z,4248.00
2019-06-10T05:02:05.817Z,4384.00
2019-06-10T05:03:04.734Z,4432.00
2019-06-10T05:04:04.752Z,4516.00
2019-06-10T05:05:04.772Z,4596.00
2019-06-10T05:06:04.791Z,4676.00
2019-06-10T05:07:04.812Z,4916.00
2019-06-10T05:08:04.840Z,5348.00
2019-06-10T05:09:04.850Z,5436.00
2019-06-10T05:10:04.878Z,5312.00
2019-06-10T05:11:04.892Z,5076.00
2019-06-10T05:12:04.909Z,4864.00
2019-06-10T05:13:04.947Z,4724.00
2019-06-10T05:14:04.951Z,4608.00
2019-06-10T05:15:04.968Z,4376.00
2019-06-10T05:16:04.990Z,4148.00
2019-06-10T05:17:05.007Z,4016.00
2019-06-10T05:18:05.026Z,3860.00
2019-06-10T05:19:05.045Z,3628.00
2019-06-10T05:20:05.067Z,3396.00
2019-06-10T05:21:05.089Z,3172.00
2019-06-10T05:22:05.108Z,2992.00
2019-06-10T05:23:05.125Z,2880.00
2019-06-10T05:24:05.149Z,2876.00
2019-06-10T05:25:05.169Z,2976.00
2019-06-10T05:26:05.185Z,3172.00
2019-06-10T05:27:05.227Z,3452.00
2019-06-10T05:28:05.229Z,3804.00
2019-06-10T05:29:05.245Z,4132.00
2019-06-10T05:30:05.265Z,4360.00
2019-06-10T05:31:05.284Z,4480.00
2019-06-10T05:32:05.415Z,4544.00
2019-06-10T05:33:05.336Z,4572.00
2019-06-10T05:34:05.343Z,4468.00
2019-06-10T05:35:05.369Z,4336.00
2019-06-10T05:36:05.388Z,4268.00
2019-06-10T05:37:05.406Z,4364.00
2019-06-10T05:38:05.429Z,4576.00
2019-06-10T05:39:05.444Z,4804.00
2019-06-10T05:40:05.592Z,4988.00
2019-06-10T05:41:05.492Z,5084.00
2019-06-10T05:42:05.523Z,5128.00
2019-06-10T05:43:05.521Z,5280.00
2019-06-10T05:44:05.549Z,5660.00
2019-06-10T05:45:05.558Z,6140.00
2019-06-10T05:46:05.582Z,6540.00
2019-06-10T05:47:05.618Z,6740.00
2019-06-10T05:48:05.621Z,7036.00
2019-06-10T05:49:05.659Z,7228.00
2019-06-10T05:50:05.662Z,7444.00
2019-06-10T05:51:06.787Z,7684.00
2019-06-10T05:52:05.700Z,8052.00
2019-06-10T05:53:05.716Z,8384.00
2019-06-10T05:54:05.737Z,9016.00
2019-06-10T05:55:05.765Z,9408.00
2019-06-10T05:56:05.785Z,9344.00
2019-06-10T05:57:05.802Z,9412.00
2019-06-10T05:58:05.823Z,9532.00
2019-06-10T05:59:05.844Z,10224.00
2019-06-10T06:00:11.277Z,11244.00
2019-06-10T06:01:05.879Z,12328.00
2019-06-10T06:02:05.894Z,13180.00
2019-06-10T06:03:05.926Z,13544.00
2019-06-10T06:04:05.946Z,13344.00
2019-06-10T06:05:05.960Z,13080.00
2019-06-10T06:06:05.977Z,13112.00
2019-06-10T06:07:06.002Z,13852.00
2019-06-10T06:08:08.700Z,15004.00
2019-06-10T06:09:06.041Z,16344.00
2019-06-10T06:10:06.064Z,18816.00
2019-06-10T06:11:06.081Z,19232.00
2019-06-10T06:12:06.222Z,20064.00
2019-06-10T06:13:06.139Z,19648.00
2019-06-10T06:14:06.153Z,20864.00
2019-06-10T06:15:06.173Z,22304.00
2019-06-10T06:16:06.187Z,20672.00
2019-06-10T06:17:06.210Z,19776.00
2019-06-10T06:18:10.409Z,20032.00
2019-06-10T06:19:06.253Z,19328.00
2019-06-10T06:20:06.276Z,18624.00
2019-06-10T06:21:20.782Z,17760.00
2019-06-10T06:22:06.315Z,17084.00
2019-06-10T06:23:08.922Z,16856.00
2019-06-10T06:24:06.399Z,16656.00
2019-06-10T06:25:06.398Z,15936.00
2019-06-10T06:26:06.407Z,15096.00
2019-06-10T06:27:06.446Z,14556.00
2019-06-10T06:28:06.450Z,14320.00
2019-06-10T06:29:06.473Z,15460.00
2019-06-10T06:30:11.415Z,15268.00
2019-06-10T06:31:06.526Z,15820.00
2019-06-10T06:32:06.545Z,16912.00
2019-06-10T06:33:06.565Z,17152.00
2019-06-10T06:34:06.586Z,18496.00
2019-06-10T06:35:06.627Z,18304.00
2019-06-10T06:36:06.648Z,18112.00
2019-06-10T06:37:06.653Z,18048.00
2019-06-10T06:38:06.682Z,16740.00
2019-06-10T06:39:06.708Z,16172.00
2019-06-10T06:40:06.724Z,16872.00
2019-06-10T06:41:06.750Z,15720.00
2019-06-10T06:42:06.767Z,15104.00
2019-06-10T06:43:06.791Z,14508.00
2019-06-10T06:44:06.809Z,14016.00
2019-06-10T06:45:06.834Z,13672.00
2019-06-10T06:46:06.857Z,13584.00
2019-06-10T06:47:06.880Z,13944.00
2019-06-10T06:48:06.903Z,14528.00
2019-06-10T06:49:06.930Z,14676.00
2019-06-10T06:50:07.008Z,15580.00
2019-06-10T06:51:08.726Z,16080.00
2019-06-10T06:52:07.001Z,15932.00
2019-06-10T06:53:23.380Z,15940.00
2019-06-10T06:54:07.038Z,15764.00
2019-06-10T06:55:07.058Z,15572.00
2019-06-10T06:56:07.085Z,15292.00
2019-06-10T06:57:07.137Z,14480.00
2019-06-10T06:58:07.133Z,14404.00
2019-06-10T06:59:07.162Z,14312.00
2019-06-10T07:00:34.274Z,14376.00
2019-06-10T07:01:10.885Z,14356.00
2019-06-10T07:02:07.226Z,14552.00
2019-06-10T07:03:07.269Z,14128.00
2019-06-10T07:04:07.284Z,13052.00
2019-06-10T07:05:07.306Z,12204.00
2019-06-10T07:06:07.332Z,12516.00
2019-06-10T07:07:07.349Z,13108.00
2019-06-10T07:08:07.397Z,14816.00
2019-06-10T07:09:08.334Z,16776.00
2019-06-10T07:10:07.427Z,18624.00
2019-06-10T07:11:07.461Z,20544.00
2019-06-10T07:12:07.483Z,18400.00
2019-06-10T07:13:07.502Z,17112.00
2019-06-10T07:14:10.077Z,16088.00
2019-06-10T07:15:07.555Z,15392.00
2019-06-10T07:16:07.579Z,17044.00
2019-06-10T07:17:07.603Z,15772.00
2019-06-10T07:18:07.732Z,15424.00
2019-06-10T07:19:07.659Z,18048.00
2019-06-10T07:20:07.674Z,18592.00
2019-06-10T07:21:07.707Z,18944.00
2019-06-10T07:22:12.463Z,19168.00
2019-06-10T07:23:07.748Z,18624.00
2019-06-10T07:24:07.777Z,17856.00
2019-06-10T07:25:07.811Z,16804.00
2019-06-10T07:26:07.823Z,15004.00
2019-06-10T07:27:07.922Z,14872.00
2019-06-10T07:28:07.880Z,15076.00
2019-06-10T07:29:07.903Z,15200.00
2019-06-10T07:30:12.501Z,15336.00
2019-06-10T07:31:22.765Z,15464.00
2019-06-10T07:32:07.995Z,15556.00
2019-06-10T07:33:08.007Z,15648.00
2019-06-10T07:34:08.102Z,15524.00
2019-06-10T07:35:08.061Z,15072.00
2019-06-10T07:36:08.102Z,13860.00
2019-06-10T07:37:08.113Z,14116.00
2019-06-10T07:38:08.151Z,14120.00
2019-06-10T07:39:08.167Z,13808.00
2019-06-10T07:40:08.198Z,13916.00
2019-06-10T07:41:08.224Z,13592.00
2019-06-10T07:42:08.248Z,13276.00
2019-06-10T07:43:08.288Z,12908.00
2019-06-10T07:44:08.302Z,12484.00
2019-06-10T07:45:08.327Z,12272.00
2019-06-10T07:46:08.352Z,12256.00
2019-06-10T07:47:08.382Z,12580.00
2019-06-10T07:48:08.408Z,13292.00
2019-06-10T07:49:08.436Z,13888.00
2019-06-10T07:50:08.460Z,14668.00
2019-06-10T07:51:08.488Z,15140.00
2019-06-10T07:52:15.548Z,13540.00
2019-06-10T07:53:08.554Z,12884.00
2019-06-10T07:54:08.564Z,13384.00
2019-06-10T07:55:08.596Z,14576.00
2019-06-10T07:56:08.619Z,14668.00
2019-06-10T07:57:08.646Z,13020.00
2019-06-10T07:58:08.674Z,13460.00
2019-06-10T07:59:08.701Z,12992.00
2019-06-10T08:00:08.742Z,12588.00
2019-06-10T08:01:08.755Z,11564.00
2019-06-10T08:02:08.778Z,11340.00
2019-06-10T08:03:08.982Z,11500.00
2019-06-10T08:04:08.829Z,11760.00
2019-06-10T08:05:08.867Z,11728.00
2019-06-10T08:06:08.886Z,11300.00
2019-06-10T08:07:08.913Z,11300.00
2019-06-10T08:08:08.935Z,11424.00
2019-06-10T08:09:08.972Z,11116.00
2019-06-10T08:10:08.986Z,9772.00
2019-06-10T08:11:09.013Z,11116.00
2019-06-10T08:12:09.040Z,11060.00
2019-06-10T08:13:09.064Z,11628.00
2019-06-10T08:14:09.092Z,13252.00
2019-06-10T08:15:09.117Z,13772.00
2019-06-10T08:16:09.142Z,14952.00
2019-06-10T08:17:09.174Z,13452.00
2019-06-10T08:18:09.192Z,13916.00
2019-06-10T08:19:25.990Z,14440.00
2019-06-10T08:20:09.981Z,15332.00
2019-06-10T08:21:09.310Z,15188.00
2019-06-10T08:22:09.294Z,13672.00
2019-06-10T08:23:09.322Z,14028.00
2019-06-10T08:24:09.344Z,13860.00
2019-06-10T08:25:09.373Z,14208.00
2019-06-10T08:26:09.405Z,13520.00
2019-06-10T08:27:09.418Z,14728.00
2019-06-10T08:28:09.456Z,15000.00
2019-06-10T08:29:09.474Z,13648.00
2019-06-10T08:30:21.259Z,14016.00
2019-06-10T08:31:12.157Z,14648.00
2019-06-10T08:32:09.569Z,14624.00
2019-06-10T08:33:09.570Z,15404.00
2019-06-10T08:34:09.601Z,15088.00
2019-06-10T08:35:09.617Z,15604.00
2019-06-10T08:36:09.648Z,15872.00
2019-06-10T08:37:09.698Z,15944.00
2019-06-10T08:38:09.690Z,15476.00
2019-06-10T08:39:12.173Z,15028.00
2019-06-10T08:40:09.743Z,14184.00
2019-06-10T08:41:12.082Z,13040.00
2019-06-10T08:42:09.816Z,12500.00
2019-06-10T08:43:09.811Z,12368.00
2019-06-10T08:44:12.352Z,12432.00
2019-06-10T08:45:12.324Z,11904.00
2019-06-10T08:46:09.886Z,10960.00
2019-06-10T08:47:12.290Z,9960.00
2019-06-10T08:48:09.931Z,9260.00
2019-06-10T08:49:12.486Z,8856.00
2019-06-10T08:50:09.983Z,8576.00
2019-06-10T08:51:12.324Z,8360.00
2019-06-10T08:52:10.032Z,8228.00
2019-06-10T08:53:14.825Z,8108.00
2019-06-10T08:54:12.645Z,8024.00
2019-06-10T08:55:12.406Z,8156.00
2019-06-10T08:56:10.141Z,8264.00
2019-06-10T08:57:12.475Z,8156.00
2019-06-10T08:58:10.173Z,8084.00
2019-06-10T08:59:12.288Z,8184.00
2019-06-10T09:00:12.564Z,8132.00
2019-06-10T09:01:12.696Z,8192.00
2019-06-10T09:02:12.347Z,8276.00
2019-06-10T09:03:12.453Z,8440.00
2019-06-10T09:04:10.323Z,8576.00
2019-06-10T09:05:12.561Z,8808.00
2019-06-10T09:06:10.366Z,8728.00
2019-06-10T09:07:12.564Z,8900.00
2019-06-10T09:08:12.831Z,9020.00
2019-06-10T09:09:12.690Z,8948.00
2019-06-10T09:10:13.025Z,8924.00
2019-06-10T09:11:12.744Z,8952.00
2019-06-10T09:12:28.352Z,9120.00
2019-06-10T09:13:12.922Z,9296.00
2019-06-10T09:14:12.612Z,9260.00
2019-06-10T09:15:12.921Z,9268.00
2019-06-10T09:16:16.614Z,9248.00
2019-06-10T09:17:12.553Z,9220.00
2019-06-10T09:18:13.936Z,9152.00
2019-06-10T09:19:13.158Z,9084.00
2019-06-10T09:20:12.851Z,9060.00
2019-06-10T09:21:12.720Z,8952.00
2019-06-10T09:22:12.615Z,8924.00
2019-06-10T09:23:19.201Z,8824.00
2019-06-10T09:24:12.919Z,8688.00
2019-06-10T09:25:12.392Z,8744.00
2019-06-10T09:26:12.522Z,8680.00
2019-06-10T09:27:12.905Z,8500.00
2019-06-10T09:28:12.855Z,8660.00
2019-06-10T09:29:13.457Z,8992.00
2019-06-10T09:30:13.303Z,9084.00
2019-06-10T09:31:13.772Z,9204.00
2019-06-10T09:32:12.498Z,9132.00
2019-06-10T09:33:13.001Z,9108.00
2019-06-10T09:34:12.716Z,9112.00
2019-06-10T09:35:12.632Z,9004.00
2019-06-10T09:36:12.551Z,9004.00
2019-06-10T09:37:12.447Z,9396.00
2019-06-10T09:38:11.115Z,9036.00
2019-06-10T09:39:12.620Z,8840.00
2019-06-10T09:40:12.310Z,8452.00
2019-06-10T09:41:14.042Z,8880.00
2019-06-10T09:42:14.494Z,9964.00
2019-06-10T09:43:12.845Z,10824.00
2019-06-10T09:44:12.905Z,9972.00
2019-06-10T09:45:12.994Z,8736.00
2019-06-10T09:46:12.648Z,8872.00
2019-06-10T09:47:14.268Z,8884.00
2019-06-10T09:48:13.241Z,9240.00
2019-06-10T09:49:12.713Z,8608.00
2019-06-10T09:50:12.280Z,8440.00
2019-06-10T09:51:12.478Z,8376.00
2019-06-10T09:52:13.475Z,9300.00
2019-06-10T09:53:12.700Z,9684.00
2019-06-10T09:54:12.725Z,10336.00
2019-06-10T09:55:12.851Z,11120.00
2019-06-10T09:56:12.526Z,11620.00
2019-06-10T09:57:12.708Z,10948.00
2019-06-10T09:58:12.271Z,10048.00
2019-06-10T09:59:12.474Z,10284.00
2019-06-10T10:00:12.470Z,9764.00
2019-06-10T10:01:13.317Z,9456.00
2019-06-10T10:02:12.565Z,9824.00
2019-06-10T10:03:12.319Z,10332.00
2019-06-10T10:04:12.379Z,10328.00
2019-06-10T10:05:11.755Z,11864.00
2019-06-10T10:06:15.615Z,12984.00
2019-06-10T10:07:12.218Z,13204.00
2019-06-10T10:08:12.738Z,13004.00
2019-06-10T10:09:11.852Z,12740.00
2019-06-10T10:10:12.889Z,11292.00
2019-06-10T10:11:12.923Z,12208.00
2019-06-10T10:12:12.311Z,12516.00
2019-06-10T10:13:13.124Z,11088.00
2019-06-10T10:14:15.850Z,10356.00
2019-06-10T10:15:24.239Z,11560.00
2019-06-10T10:16:13.149Z,11416.00
2019-06-10T10:17:12.866Z,12096.00
2019-06-10T10:18:13.421Z,11560.00
2019-06-10T10:19:13.051Z,9392.00
2019-06-10T10:20:12.373Z,8104.00
2019-06-10T10:21:13.064Z,7204.00
2019-06-10T10:22:13.981Z,7236.00
2019-06-10T10:23:13.651Z,7972.00
2019-06-10T10:24:14.929Z,8656.00
2019-06-10T10:25:14.397Z,8828.00
2019-06-10T10:26:13.218Z,8544.00
2019-06-10T10:27:13.402Z,8260.00
2019-06-10T10:28:13.407Z,8616.00
2019-06-10T10:29:13.025Z,8476.00
2019-06-10T10:30:13.522Z,8696.00
2019-06-10T10:31:13.097Z,8840.00
2019-06-10T10:32:13.198Z,9384.00
2019-06-10T10:33:12.913Z,10476.00
2019-06-10T10:34:13.539Z,11668.00
2019-06-10T10:35:12.753Z,12780.00
2019-06-10T10:36:14.074Z,12996.00
2019-06-10T10:37:12.505Z,13748.00
2019-06-10T10:38:14.327Z,13720.00
2019-06-10T10:39:13.965Z,13800.00
2019-06-10T10:40:12.575Z,13264.00
2019-06-10T10:41:13.584Z,13188.00
2019-06-10T10:42:12.692Z,12832.00
2019-06-10T10:43:25.197Z,12964.00
2019-06-10T10:44:13.822Z,13356.00
2019-06-10T10:45:13.337Z,12336.00
2019-06-10T10:46:14.028Z,10964.00
2019-06-10T10:47:12.738Z,10056.00
2019-06-10T10:48:14.113Z,9760.00
2019-06-10T10:49:13.427Z,9516.00
2019-06-10T10:50:13.961Z,8124.00
2019-06-10T10:51:13.366Z,9304.00
2019-06-10T10:52:13.049Z,9008.00
2019-06-10T10:53:12.979Z,7908.00
2019-06-10T10:54:28.435Z,7816.00
2019-06-10T10:55:13.171Z,8832.00
2019-06-10T10:56:13.252Z,8936.00
2019-06-10T10:57:13.236Z,9136.00
2019-06-10T10:58:12.997Z,9112.00
2019-06-10T10:59:13.487Z,8712.00
2019-06-10T11:00:13.060Z,8656.00
2019-06-10T11:01:15.042Z,8564.00
2019-06-10T11:02:13.092Z,8680.00
2019-06-10T11:03:13.457Z,8568.00
2019-06-10T11:04:13.465Z,8428.00
2019-06-10T11:05:13.164Z,8284.00
2019-06-10T11:06:13.305Z,8256.00
2019-06-10T11:07:13.207Z,8276.00
2019-06-10T11:08:14.343Z,8412.00
2019-06-10T11:09:13.285Z,8520.00
2019-06-10T11:10:13.278Z,8456.00
2019-06-10T11:11:13.684Z,8464.00
2019-06-10T11:12:13.330Z,8432.00
2019-06-10T11:13:13.353Z,8356.00
2019-06-10T11:14:14.977Z,8508.00
2019-06-10T11:15:13.784Z,8540.00
2019-06-10T11:16:13.531Z,8772.00
2019-06-10T11:17:13.448Z,8944.00
2019-06-10T11:18:13.470Z,9000.00
2019-06-10T11:19:13.493Z,8544.00
2019-06-10T11:20:13.730Z,9200.00
2019-06-10T11:21:13.555Z,9824.00
2019-06-10T11:22:13.569Z,10860.00
2019-06-10T11:23:13.591Z,10468.00
2019-06-10T11:24:14.524Z,9624.00
2019-06-10T11:25:13.646Z,9064.00
2019-06-10T11:26:13.661Z,8460.00
2019-06-10T11:27:13.689Z,8520.00
2019-06-10T11:28:13.707Z,8968.00
2019-06-10T11:29:13.733Z,9236.00
2019-06-10T11:30:13.759Z,10128.00
2019-06-10T11:31:14.240Z,10448.00
2019-06-10T11:32:13.814Z,10564.00
2019-06-10T11:33:13.830Z,10612.00
2019-06-10T11:34:13.853Z,11560.00
2019-06-10T11:35:13.874Z,12096.00
2019-06-10T11:36:13.929Z,12632.00
2019-06-10T11:37:13.921Z,13260.00
2019-06-10T11:38:13.949Z,13572.00
2019-06-10T11:39:13.975Z,13088.00
2019-06-10T11:40:13.992Z,12464.00
2019-06-10T11:41:14.033Z,11412.00
2019-06-10T11:42:14.040Z,10964.00
2019-06-10T11:43:14.064Z,10440.00
2019-06-10T11:44:14.725Z,10644.00
2019-06-10T11:45:14.125Z,10132.00
2019-06-10T11:46:14.227Z,10488.00
2019-06-10T11:47:14.161Z,11412.00
2019-06-10T11:48:14.186Z,11312.00
2019-06-10T11:49:14.208Z,10728.00
2019-06-10T11:50:14.234Z,10484.00
2019-06-10T11:51:14.277Z,10336.00
2019-06-10T11:52:14.287Z,10096.00
2019-06-10T11:53:14.311Z,8976.00
2019-06-10T11:54:14.328Z,10172.00
2019-06-10T11:55:18.960Z,10976.00
2019-06-10T11:56:14.381Z,10032.00
2019-06-10T11:57:14.406Z,10176.00
2019-06-10T11:58:14.424Z,10940.00
2019-06-10T11:59:14.454Z,11404.00
2019-06-10T12:00:17.273Z,11264.00
2019-06-10T12:01:14.503Z,10944.00
2019-06-10T12:02:14.525Z,10272.00
2019-06-10T12:03:14.555Z,10248.00
2019-06-10T12:04:14.571Z,10452.00
2019-06-10T12:05:14.596Z,9652.00
2019-06-10T12:06:14.699Z,10208.00
2019-06-10T12:07:14.639Z,10620.00
2019-06-10T12:08:14.672Z,10844.00
2019-06-10T12:09:14.710Z,10720.00
2019-06-10T12:10:14.717Z,10412.00
2019-06-10T12:11:14.737Z,10112.00
2019-06-10T12:12:14.807Z,9804.00
2019-06-10T12:13:14.788Z,9344.00
2019-06-10T12:14:14.980Z,9264.00
2019-06-10T12:15:14.835Z,8956.00
2019-06-10T12:17:05.723Z,8944.00
2019-06-10T12:17:32.736Z,9020.00